Time;durP1;ratioP1;P1;durP2;ratioP2;P2;SDS_P1;SDS_P2;PMS_P1;PMS_P2;Temp;Humidity;BMP_temperature;BMP_pressure;BME280_temperature;BME280_humidity;BME280_pressure;Samples;Min_cycle;Max_cycle;Signal;HPM_P1;HPM_P2
2022/01/11 00:01:52;;;;;;;7.17;6.57;;;;;;;7.67;100.00;98820.06;5067593;28;20204;-77
2022/01/11 00:04:20;;;;;;;8.43;7.37;;;;;;;7.65;100.00;98820.13;5065437;28;20204;-76
2022/01/11 00:06:49;;;;;;;8.67;7.47;;;;;;;7.62;100.00;98824.47;5065643;28;20291;-76
2022/01/11 00:09:23;;;;;;;7.73;7.00;;;;;;;7.66;100.00;98831.97;5063757;28;20232;-76
2022/01/11 00:11:50;;;;;;;8.20;6.50;;;;;;;7.63;100.00;98831.22;5069410;28;20200;-76
2022/01/11 00:14:19;;;;;;;8.17;7.37;;;;;;;7.64;100.00;98832.91;5070286;28;20208;-76
2022/01/11 00:16:46;;;;;;;9.87;7.73;;;;;;;7.63;100.00;98838.84;5072126;28;20200;-77
2022/01/11 00:19:14;;;;;;;7.57;6.83;;;;;;;7.63;100.00;98846.50;5069904;28;20710;-77
2022/01/11 00:21:46;;;;;;;9.30;7.47;;;;;;;7.59;100.00;98850.88;5072217;28;20586;-76
2022/01/11 00:24:29;;;;;;;16.47;9.97;;;;;;;7.58;100.00;98848.38;5070740;28;20675;-77
2022/01/11 00:26:57;;;;;;;13.47;9.30;;;;;;;7.56;100.00;98852.69;5067186;28;20195;-76
2022/01/11 00:29:25;;;;;;;12.10;8.77;;;;;;;7.64;100.00;98855.84;5064056;28;20219;-77
2022/01/11 00:31:53;;;;;;;10.27;7.50;;;;;;;7.50;100.00;98842.63;5068406;28;20230;-76
2022/01/11 00:34:22;;;;;;;8.07;7.20;;;;;;;7.62;100.00;98866.13;5071726;28;20192;-77
2022/01/11 00:36:49;;;;;;;7.90;7.17;;;;;;;7.65;100.00;98870.28;5071771;28;20247;-76
2022/01/11 00:39:16;;;;;;;8.47;7.63;;;;;;;7.54;100.00;98874.81;5071583;28;20196;-77
2022/01/11 00:41:45;;;;;;;8.77;7.90;;;;;;;7.56;100.00;98876.44;5068006;28;20201;-76
2022/01/11 00:44:13;;;;;;;9.50;7.33;;;;;;;7.48;100.00;98873.28;5071194;28;20207;-76
2022/01/11 00:46:42;;;;;;;6.73;6.10;;;;;;;7.48;100.00;98883.47;5071121;28;20290;-77
2022/01/11 00:49:09;;;;;;;6.97;6.47;;;;;;;7.45;100.00;98877.63;5067156;28;20614;-77
2022/01/11 00:51:36;;;;;;;11.73;7.30;;;;;;;7.41;100.00;98881.97;5068842;28;20579;-77
2022/01/11 00:54:03;;;;;;;9.23;8.17;;;;;;;7.55;100.00;98889.25;5070270;28;20294;-75
2022/01/11 00:56:30;;;;;;;8.90;8.00;;;;;;;7.58;100.00;98889.19;5071569;28;20286;-76
2022/01/11 00:58:57;;;;;;;8.30;7.60;;;;;;;7.47;100.00;98893.69;5069087;28;20207;-75
2022/01/11 01:01:27;;;;;;;7.63;6.93;;;;;;;7.43;100.00;98894.69;5066934;28;20224;-77
2022/01/11 01:03:55;;;;;;;8.53;7.63;;;;;;;7.38;100.00;98900.72;5071267;28;20215;-75
2022/01/11 01:06:22;;;;;;;9.90;7.73;;;;;;;7.37;100.00;98896.50;5070993;28;20208;-76
2022/01/11 01:08:49;;;;;;;6.13;5.73;;;;;;;7.32;100.00;98902.59;5070745;28;20241;-76
2022/01/11 01:11:16;;;;;;;5.60;5.23;;;;;;;7.29;100.00;98903.50;5069524;28;20306;-76
2022/01/11 01:13:43;;;;;;;9.10;6.77;;;;;;;7.33;100.00;98905.09;5071458;28;20742;-76
2022/01/11 01:16:10;;;;;;;8.27;6.70;;;;;;;7.23;100.00;98913.88;5070527;28;20200;-77
2022/01/11 01:18:36;;;;;;;6.13;5.73;;;;;;;7.19;100.00;98907.16;5071054;28;20206;-76
2022/01/11 01:21:05;;;;;;;6.60;6.10;;;;;;;7.25;100.00;98912.09;5070670;28;20200;-73
2022/01/11 01:23:32;;;;;;;7.50;6.97;;;;;;;7.26;100.00;98918.88;5068391;28;20195;-76
2022/01/11 01:26:00;;;;;;;6.73;6.10;;;;;;;7.22;100.00;98922.38;5070419;28;20208;-76
2022/01/11 01:28:28;;;;;;;10.00;7.00;;;;;;;7.19;100.00;98919.91;5070857;28;20207;-76
2022/01/11 01:31:00;;;;;;;6.70;6.20;;;;;;;7.19;100.00;98922.44;5065466;28;20216;-76
2022/01/11 01:33:27;;;;;;;6.50;6.00;;;;;;;7.16;100.00;98926.78;5068089;28;20229;-76
2022/01/11 01:35:59;;;;;;;6.93;6.30;;;;;;;7.13;100.00;98931.97;5069581;28;20219;-77
2022/01/11 01:38:29;;;;;;;6.27;5.83;;;;;;;7.01;100.00;98922.88;5066947;28;20218;-76
2022/01/11 01:41:01;;;;;;;6.47;5.97;;;;;;;7.15;100.00;98936.13;5068514;28;20203;-76
2022/01/11 01:43:29;;;;;;;6.37;5.77;;;;;;;7.05;100.00;98926.19;5068453;28;20246;-76
2022/01/11 01:45:59;;;;;;;6.40;5.63;;;;;;;7.05;100.00;98937.22;5068720;28;20195;-76
2022/01/11 01:48:26;;;;;;;6.47;5.87;;;;;;;7.08;100.00;98939.69;5068429;28;20302;-76
2022/01/11 01:50:53;;;;;;;5.90;5.40;;;;;;;6.99;100.00;98939.91;5067941;28;20212;-75
2022/01/11 01:53:20;;;;;;;5.50;5.10;;;;;;;6.92;100.00;98935.84;5063441;28;20201;-75
2022/01/11 01:55:49;;;;;;;6.00;5.60;;;;;;;6.92;100.00;98948.56;5066080;28;20200;-76
2022/01/11 01:58:17;;;;;;;6.17;5.23;;;;;;;6.78;100.00;98948.06;5062229;28;20201;-73
2022/01/11 02:00:51;;;;;;;5.30;4.90;;;;;;;6.77;100.00;98951.47;5068384;28;20195;-76
2022/01/11 02:03:25;;;;;;;6.10;5.63;;;;;;;6.72;100.00;98946.47;5067868;28;20200;-76
2022/01/11 02:05:53;;;;;;;5.10;4.73;;;;;;;6.66;100.00;98945.75;5068384;28;20671;-75
2022/01/11 02:08:20;;;;;;;5.93;5.50;;;;;;;6.57;100.00;98945.97;5068243;28;20327;-76
2022/01/11 02:10:49;;;;;;;5.87;5.23;;;;;;;6.65;100.00;98946.66;5069441;28;20294;-76
2022/01/11 02:13:17;;;;;;;6.47;5.80;;;;;;;6.64;100.00;98947.50;5069627;28;20200;-75
2022/01/11 02:15:44;;;;;;;5.60;5.10;;;;;;;6.63;100.00;98945.81;5069666;28;20204;-75
2022/01/11 02:18:14;;;;;;;5.83;5.40;;;;;;;6.59;100.00;98939.16;5064206;28;20614;-75
2022/01/11 02:20:44;;;;;;;5.00;4.70;;;;;;;6.53;100.00;98949.44;5065824;28;20216;-75
2022/01/11 02:23:11;;;;;;;5.77;5.00;;;;;;;6.54;100.00;98953.66;5069802;28;20292;-75
2022/01/11 02:25:38;;;;;;;6.37;5.83;;;;;;;6.47;100.00;98959.75;5069982;28;20278;-75
2022/01/11 02:28:06;;;;;;;7.10;6.07;;;;;;;6.44;100.00;98954.72;5069538;28;20200;-76
2022/01/11 02:30:34;;;;;;;6.17;5.67;;;;;;;6.46;100.00;98968.28;5067026;28;20295;-75
2022/01/11 02:33:06;;;;;;;5.87;5.43;;;;;;;6.45;100.00;98969.97;5070416;28;20672;-76
2022/01/11 02:35:33;;;;;;;4.77;4.47;;;;;;;6.40;100.00;98969.22;5062381;28;20282;-75
2022/01/11 02:38:02;;;;;;;6.83;6.03;;;;;;;6.38;100.00;98968.44;5065022;28;20283;-76
2022/01/11 02:40:29;;;;;;;6.87;5.67;;;;;;;6.27;100.00;98971.19;5065369;28;20200;-76
2022/01/11 02:42:56;;;;;;;6.53;6.03;;;;;;;6.26;100.00;98971.22;5067064;28;20207;-76
2022/01/11 02:45:23;;;;;;;8.90;6.63;;;;;;;6.12;100.00;98946.03;5069533;28;20598;-74
2022/01/11 02:47:50;;;;;;;6.70;5.97;;;;;;;6.18;100.00;98956.09;5069761;28;20291;-76
2022/01/11 02:50:19;;;;;;;6.20;5.70;;;;;;;6.22;100.00;98970.44;5069548;28;20208;-75
2022/01/11 02:52:46;;;;;;;3.97;3.77;;;;;;;6.10;100.00;98965.59;5067052;28;20287;-74
2022/01/11 02:55:16;;;;;;;5.37;4.97;;;;;;;6.12;100.00;98958.75;5067401;28;20265;-75
2022/01/11 02:57:43;;;;;;;6.20;5.60;;;;;;;6.15;100.00;98968.03;5066249;28;20208;-76
2022/01/11 03:00:15;;;;;;;7.43;6.50;;;;;;;6.12;100.00;98957.91;5067422;28;20265;-76
2022/01/11 03:02:43;;;;;;;5.73;5.33;;;;;;;6.12;100.00;98958.75;5069953;28;20287;-76
2022/01/11 03:05:12;;;;;;;5.77;5.37;;;;;;;6.05;100.00;98962.28;5068897;28;20723;-76
2022/01/11 03:07:39;;;;;;;6.40;5.90;;;;;;;6.07;100.00;98970.75;5069717;28;20242;-75
2022/01/11 03:10:15;;;;;;;6.07;5.57;;;;;;;6.04;100.00;98975.88;5069019;28;20224;-76
2022/01/11 03:12:44;;;;;;;6.07;5.60;;;;;;;6.05;100.00;98972.47;5060492;28;20216;-75
2022/01/11 03:15:13;;;;;;;5.50;5.10;;;;;;;5.92;100.00;98954.91;5053074;28;21023;-75
2022/01/11 03:17:40;;;;;;;6.13;5.53;;;;;;;5.88;100.00;98964.28;5068697;28;20702;-75
2022/01/11 03:20:09;;;;;;;5.73;5.27;;;;;;;6.06;100.00;98978.41;5073029;28;20285;-75
2022/01/11 03:22:36;;;;;;;4.30;4.00;;;;;;;6.00;100.00;98979.34;5067822;28;20645;-76
2022/01/11 03:25:05;;;;;;;6.40;5.87;;;;;;;6.01;100.00;98991.19;5073384;28;20200;-75
2022/01/11 03:27:32;;;;;;;5.77;5.27;;;;;;;6.01;100.00;98985.28;5057703;28;20196;-76
2022/01/11 03:30:00;;;;;;;5.63;5.17;;;;;;;5.94;100.00;98989.66;5063969;28;20208;-75
2022/01/11 03:32:27;;;;;;;6.37;4.83;;;;;;;5.89;100.00;98993.97;5061335;28;20232;-76
2022/01/11 03:34:54;;;;;;;4.70;4.40;;;;;;;5.88;100.00;98994.81;5073108;28;20287;-76
2022/01/11 03:37:21;;;;;;;5.43;5.10;;;;;;;5.89;100.00;98998.22;5064133;28;20740;-77
2022/01/11 03:39:48;;;;;;;4.70;4.40;;;;;;;5.88;100.00;98994.81;5066102;28;20211;-76
2022/01/11 03:42:15;;;;;;;4.93;4.63;;;;;;;5.78;100.00;98994.13;5068421;28;20739;-76
2022/01/11 03:44:42;;;;;;;4.63;4.33;;;;;;;5.86;100.00;99006.75;5061204;28;20208;-76
2022/01/11 03:47:10;;;;;;;4.60;4.30;;;;;;;5.86;100.00;99006.75;5070321;28;20200;-76
2022/01/11 03:49:40;;;;;;;6.87;5.77;;;;;;;5.78;100.00;99003.47;5071153;28;20192;-76
2022/01/11 03:52:07;;;;;;;5.27;4.87;;;;;;;5.83;100.00;99005.06;5067524;28;20220;-76
2022/01/11 03:54:50;;;;;;;5.03;4.67;;;;;;;5.86;100.00;99009.28;5065320;28;20669;-76
2022/01/11 03:57:17;;;;;;;7.33;6.83;;;;;;;5.81;100.00;99013.59;5069212;28;20254;-76
2022/01/11 03:59:44;;;;;;;7.77;7.13;;;;;;;5.82;100.00;99010.16;5064304;28;20579;-75
2022/01/11 04:02:13;;;;;;;10.77;9.77;;;;;;;5.82;100.00;99010.16;5069197;28;20192;-76
2022/01/11 04:04:40;;;;;;;4.40;4.20;;;;;;;5.73;100.00;98995.06;5060516;28;20291;-75
2022/01/11 04:07:07;;;;;;;4.50;4.20;;;;;;;5.86;100.00;99016.06;5067511;28;20195;-76
2022/01/11 04:09:34;;;;;;;4.33;4.03;;;;;;;5.82;100.00;99026.25;5070594;28;20220;-76
2022/01/11 04:12:01;;;;;;;4.37;4.10;;;;;;;5.83;100.00;99032.19;5068805;28;20750;-76
2022/01/11 04:14:28;;;;;;;4.70;4.40;;;;;;;5.84;100.00;99033.88;5070023;28;20282;-74
2022/01/11 04:16:55;;;;;;;4.50;4.27;;;;;;;5.91;100.00;99030.41;5072050;28;20668;-75
2022/01/11 04:19:23;;;;;;;6.23;5.73;;;;;;;5.88;100.00;99022.81;5071951;28;20295;-75
2022/01/11 04:21:50;;;;;;;6.33;5.93;;;;;;;5.82;100.00;99040.69;5067497;28;20193;-75
2022/01/11 04:24:17;;;;;;;9.70;7.97;;;;;;;5.82;100.00;99041.53;5069323;28;20279;-75
2022/01/11 04:26:44;;;;;;;4.83;4.43;;;;;;;5.82;100.00;99033.91;5064488;28;20226;-75
2022/01/11 04:29:11;;;;;;;6.97;6.40;;;;;;;5.83;100.00;99042.38;5065171;28;20208;-74
2022/01/11 04:31:38;;;;;;;15.37;11.23;;;;;;;5.82;100.00;99040.69;5071592;28;20227;-74
2022/01/11 04:34:05;;;;;;;7.67;6.87;;;;;;;5.68;100.00;99037.53;5071912;28;20294;-75
2022/01/11 04:36:33;;;;;;;10.07;8.63;;;;;;;5.74;100.00;99042.53;5068903;28;20637;-73
2022/01/11 04:39:01;;;;;;;8.17;7.27;;;;;;;5.78;100.00;99055.16;5070663;28;20196;-75
2022/01/11 04:41:27;;;;;;;11.00;6.87;;;;;;;5.69;100.00;99046.84;5071447;28;20279;-75
2022/01/11 04:43:54;;;;;;;16.33;9.23;;;;;;;5.71;100.00;99053.59;5062167;28;20584;-74
2022/01/11 04:46:21;;;;;;;17.90;9.77;;;;;;;5.78;100.00;99049.25;5065692;28;20334;-75
2022/01/11 04:48:50;;;;;;;24.17;12.57;;;;;;;5.80;100.00;99057.69;5061901;28;20208;-74
2022/01/11 04:51:17;;;;;;;20.57;10.27;;;;;;;5.66;100.00;99062.13;5068247;28;20315;-75
2022/01/11 04:53:45;;;;;;;6.00;5.50;;;;;;;5.69;100.00;99065.47;5066761;28;20208;-74
2022/01/11 04:56:12;;;;;;;6.63;5.90;;;;;;;5.68;100.00;99062.97;5071061;28;20291;-76
2022/01/11 04:58:39;;;;;;;6.90;6.40;;;;;;;5.68;100.00;99062.97;5071586;28;20204;-76
2022/01/11 05:01:06;;;;;;;7.07;6.37;;;;;;;5.72;100.00;99072.22;5068423;28;20192;-76
2022/01/11 05:03:33;;;;;;;5.23;4.83;;;;;;;5.69;100.00;99075.66;5071408;28;20338;-76
2022/01/11 05:06:00;;;;;;;8.50;7.43;;;;;;;5.71;100.00;99075.63;5064173;28;20287;-76
2022/01/11 05:08:27;;;;;;;6.03;5.57;;;;;;;5.64;100.00;99084.22;5060198;28;20256;-76
2022/01/11 05:10:55;;;;;;;5.67;5.23;;;;;;;5.65;100.00;99084.22;5070791;28;20310;-75
2022/01/11 05:13:22;;;;;;;4.23;3.93;;;;;;;5.70;100.00;99091.75;5070622;28;20215;-76
2022/01/11 05:15:50;;;;;;;4.83;4.53;;;;;;;5.73;100.00;99095.09;5067879;28;20628;-75
2022/01/11 05:18:17;;;;;;;6.77;6.03;;;;;;;5.69;100.00;99092.59;5071309;28;20303;-76
2022/01/11 05:20:46;;;;;;;4.43;4.13;;;;;;;5.52;100.00;99097.13;5071088;28;20568;-74
2022/01/11 05:23:14;;;;;;;4.13;3.80;;;;;;;5.50;100.00;99109.84;5070428;28;20672;-72
2022/01/11 05:25:42;;;;;;;6.10;5.63;;;;;;;5.52;100.00;99107.28;5071106;28;20243;-74
2022/01/11 05:28:10;;;;;;;4.27;3.87;;;;;;;5.42;100.00;99103.22;5070082;28;20234;-73
2022/01/11 05:30:37;;;;;;;3.23;3.03;;;;;;;5.44;100.00;99111.63;5070589;28;20644;-74
2022/01/11 05:33:05;;;;;;;3.17;2.97;;;;;;;5.43;100.00;99112.53;5070078;28;20204;-71
2022/01/11 05:35:32;;;;;;;3.90;3.60;;;;;;;5.34;100.00;99107.53;5063577;28;20202;-72
2022/01/11 05:37:59;;;;;;;4.00;3.70;;;;;;;5.48;100.00;99120.91;5070949;28;20287;-74
2022/01/11 05:40:26;;;;;;;3.70;3.50;;;;;;;5.32;100.00;99114.34;5064549;28;20286;-74
2022/01/11 05:42:53;;;;;;;3.73;3.43;;;;;;;5.39;100.00;99138.84;5056896;28;20241;-75
2022/01/11 05:45:22;;;;;;;3.53;3.33;;;;;;;5.28;100.00;99134.72;5062320;28;20656;-73
2022/01/11 05:47:52;;;;;;;5.43;5.03;;;;;;;5.23;100.00;99140.75;5059645;28;20212;-73
2022/01/11 05:50:21;;;;;;;3.83;3.63;;;;;;;5.29;100.00;99146.59;5061169;28;20301;-75
2022/01/11 05:52:49;;;;;;;4.90;4.53;;;;;;;5.20;100.00;99151.75;5070157;28;20223;-73
2022/01/11 05:55:17;;;;;;;4.60;4.30;;;;;;;5.26;100.00;99156.78;5069731;28;20196;-75
2022/01/11 05:57:44;;;;;;;3.87;3.67;;;;;;;5.19;100.00;99159.41;5070274;28;20279;-73
2022/01/11 06:00:15;;;;;;;5.23;4.83;;;;;;;5.28;100.00;99162.69;5055901;28;20189;-74
2022/01/11 06:02:46;;;;;;;4.67;4.20;;;;;;;5.18;100.00;99166.19;5061635;28;20287;-73
2022/01/11 06:05:15;;;;;;;4.90;4.60;;;;;;;5.28;100.00;99170.31;5069182;28;20283;-74
2022/01/11 06:07:42;;;;;;;5.20;4.80;;;;;;;5.30;100.00;99177.91;5054790;28;20224;-75
2022/01/11 06:10:10;;;;;;;7.20;6.00;;;;;;;5.28;100.00;99179.63;5057935;28;20203;-73
2022/01/11 06:12:37;;;;;;;5.17;4.83;;;;;;;5.23;100.00;99182.22;5061164;28;20303;-74
2022/01/11 06:15:04;;;;;;;4.67;4.37;;;;;;;5.21;100.00;99189.03;5069460;28;20291;-73
2022/01/11 06:17:32;;;;;;;6.57;5.57;;;;;;;5.20;100.00;99192.41;5062121;28;20278;-72
2022/01/11 06:20:00;;;;;;;10.70;6.83;;;;;;;5.29;100.00;99192.31;5064199;28;20208;-75
2022/01/11 06:22:27;;;;;;;5.73;5.37;;;;;;;5.30;100.00;99191.44;5062197;28;20302;-73
2022/01/11 06:24:54;;;;;;;6.93;6.43;;;;;;;5.23;100.00;99194.91;5062383;28;20208;-73
2022/01/11 06:27:21;;;;;;;6.07;5.67;;;;;;;5.25;100.00;99205.09;5068354;28;20290;-75
2022/01/11 06:29:48;;;;;;;6.70;6.20;;;;;;;5.24;100.00;99201.69;5069554;28;20279;-73
2022/01/11 06:32:15;;;;;;;6.03;5.57;;;;;;;5.22;100.00;99205.13;5069816;28;20700;-73
2022/01/11 06:34:42;;;;;;;5.60;5.07;;;;;;;5.23;100.00;99222.88;5063812;28;20200;-73
2022/01/11 06:37:10;;;;;;;5.63;5.23;;;;;;;5.22;100.00;99216.13;5069569;28;20672;-75
2022/01/11 06:39:37;;;;;;;6.53;5.87;;;;;;;5.27;100.00;99223.69;5063036;28;20579;-73
2022/01/11 06:42:05;;;;;;;5.33;4.93;;;;;;;5.29;100.00;99227.91;5064790;28;20291;-75
2022/01/11 06:44:32;;;;;;;5.77;5.47;;;;;;;5.19;100.00;99221.25;5062085;28;20192;-74
2022/01/11 06:46:59;;;;;;;5.93;5.37;;;;;;;5.32;100.00;99236.34;5065054;28;20291;-75
2022/01/11 06:49:26;;;;;;;6.23;5.60;;;;;;;5.22;100.00;99228.84;5067809;28;21722;-73
2022/01/11 06:51:53;;;;;;;7.30;6.03;;;;;;;5.27;100.00;99244.00;5071879;28;20330;-72
2022/01/11 06:54:22;;;;;;;8.07;7.27;;;;;;;5.14;100.00;99227.22;5073442;28;20735;-75
2022/01/11 06:56:49;;;;;;;6.83;6.13;;;;;;;5.25;100.00;99251.66;5073749;28;20279;-74
2022/01/11 06:59:16;;;;;;;9.73;6.47;;;;;;;5.28;100.00;99255.88;5073432;28;20203;-76
2022/01/11 07:01:43;;;;;;;7.20;6.50;;;;;;;5.22;100.00;99256.78;5073507;28;20282;-73
2022/01/11 07:04:10;;;;;;;6.73;6.23;;;;;;;5.23;100.00;99263.53;5071734;28;20295;-73
2022/01/11 07:06:36;;;;;;;8.17;7.37;;;;;;;5.17;100.00;99258.53;5073685;28;20593;-73
2022/01/11 07:09:03;;;;;;;6.97;6.30;;;;;;;5.22;100.00;99266.94;5058687;28;20232;-73
2022/01/11 07:11:32;;;;;;;7.97;7.23;;;;;;;5.23;100.00;99272.88;5061483;28;20226;-73
2022/01/11 07:14:01;;;;;;;10.73;8.80;;;;;;;5.19;100.00;99272.06;5072766;28;20283;-74
2022/01/11 07:16:28;;;;;;;8.37;7.60;;;;;;;5.22;100.00;99279.66;5069634;28;20204;-76
2022/01/11 07:18:55;;;;;;;8.70;8.00;;;;;;;5.16;100.00;99282.28;5064999;28;20222;-76
2022/01/11 07:21:22;;;;;;;7.40;6.80;;;;;;;5.18;100.00;99290.69;5069303;28;20219;-66
2022/01/11 07:23:49;;;;;;;10.33;8.27;;;;;;;5.22;100.00;99297.44;5067814;28;20227;-66
2022/01/11 07:26:16;;;;;;;10.20;9.03;;;;;;;5.17;100.00;99304.25;5069998;28;20287;-66
2022/01/11 07:28:46;;;;;;;9.77;8.80;;;;;;;5.24;100.00;99303.34;5071600;28;20751;-67
2022/01/11 07:31:13;;;;;;;9.10;8.30;;;;;;;5.24;100.00;99305.88;5063244;28;20231;-72
2022/01/11 07:33:39;;;;;;;9.40;8.53;;;;;;;5.24;100.00;99310.97;5066524;28;20199;-72
2022/01/11 07:36:06;;;;;;;10.53;9.53;;;;;;;5.19;100.00;99317.81;5069101;28;20303;-73
2022/01/11 07:38:33;;;;;;;9.30;8.17;;;;;;;5.25;100.00;99321.97;5065312;28;20200;-74
2022/01/11 07:41:00;;;;;;;8.77;7.87;;;;;;;5.19;100.00;99322.88;5064894;28;20211;-73
2022/01/11 07:43:27;;;;;;;10.93;9.73;;;;;;;5.18;100.00;99330.50;5063618;28;20283;-73
2022/01/11 07:45:55;;;;;;;10.80;9.70;;;;;;;5.22;100.00;99327.09;5059582;28;20212;-73
2022/01/11 07:48:22;;;;;;;11.00;9.67;;;;;;;5.27;100.00;99331.25;5063182;28;20218;-73
2022/01/11 07:50:49;;;;;;;13.83;9.93;;;;;;;5.25;100.00;99327.91;5062807;28;20219;-72
2022/01/11 07:53:16;;;;;;;11.13;9.23;;;;;;;5.29;100.00;99329.56;5062804;28;20219;-70
2022/01/11 07:55:43;;;;;;;10.93;8.83;;;;;;;5.22;100.00;99335.56;5059659;28;20201;-70
2022/01/11 07:58:10;;;;;;;12.97;9.93;;;;;;;5.25;100.00;99338.06;5067312;28;20287;-71
2022/01/11 08:00:37;;;;;;;9.47;8.13;;;;;;;5.31;100.00;99347.31;5063454;28;20666;-72
2022/01/11 08:03:05;;;;;;;9.47;8.70;;;;;;;5.33;100.00;99352.41;5062737;28;20204;-71
2022/01/11 08:05:32;;;;;;;9.40;8.43;;;;;;;5.30;100.00;99349.03;5062726;28;20314;-73
2022/01/11 08:07:59;;;;;;;10.03;9.13;;;;;;;5.33;100.00;99352.41;5070557;28;20231;-72
2022/01/11 08:10:26;;;;;;;10.00;9.00;;;;;;;5.36;100.00;99360.00;5070151;28;20204;-70
2022/01/11 08:12:53;;;;;;;9.10;8.17;;;;;;;5.27;100.00;99343.97;5065966;28;20707;-75
2022/01/11 08:15:20;;;;;;;9.73;8.80;;;;;;;5.32;100.00;99368.50;5062819;28;20295;-69
2022/01/11 08:17:48;;;;;;;10.23;8.83;;;;;;;5.41;100.00;99373.50;5064586;28;20284;-75
2022/01/11 08:20:16;;;;;;;7.13;6.63;;;;;;;5.35;100.00;99376.09;5066736;28;20211;-72
2022/01/11 08:22:48;;;;;;;8.90;6.80;;;;;;;5.40;100.00;99376.88;5062669;28;20211;-73
2022/01/11 08:25:15;;;;;;;8.00;7.20;;;;;;;5.35;100.00;99381.19;5065376;28;20561;-73
2022/01/11 08:27:42;;;;;;;10.57;9.03;;;;;;;5.37;100.00;99371.84;5063529;28;20336;-70
2022/01/11 08:30:10;;;;;;;9.37;7.73;;;;;;;5.47;100.00;99388.69;5061984;28;20280;-71
2022/01/11 08:32:37;;;;;;;7.63;6.93;;;;;;;5.43;100.00;99380.25;5061870;28;20215;-74
2022/01/11 08:35:05;;;;;;;6.87;6.27;;;;;;;5.48;100.00;99385.28;5067004;28;20287;-74
2022/01/11 08:37:34;;;;;;;7.73;6.90;;;;;;;5.36;100.00;99387.97;5057722;28;20240;-73
2022/01/11 08:40:00;;;;;;;10.10;7.93;;;;;;;5.37;100.00;99387.94;5069962;28;20214;-73
2022/01/11 08:42:29;;;;;;;9.53;7.73;;;;;;;5.45;100.00;99390.41;5070525;28;20287;-73
2022/01/11 08:44:56;;;;;;;8.17;7.47;;;;;;;5.37;100.00;99392.16;5063958;28;20811;-73
2022/01/11 08:47:24;;;;;;;8.20;7.50;;;;;;;5.28;100.00;99373.63;5067510;28;20227;-74
2022/01/11 08:49:51;;;;;;;13.50;10.17;;;;;;;5.42;100.00;99392.97;5066759;28;20211;-73
2022/01/11 08:52:18;;;;;;;13.13;9.73;;;;;;;5.43;100.00;99384.50;5062993;28;20243;-74
2022/01/11 08:54:47;;;;;;;11.87;8.07;;;;;;;5.46;100.00;99392.09;5070936;28;20651;-73
2022/01/11 08:57:18;;;;;;;7.13;6.53;;;;;;;5.35;100.00;99389.66;5069583;28;20628;-73
2022/01/11 08:59:46;;;;;;;7.80;7.17;;;;;;;5.43;100.00;99397.22;5064338;28;20691;-71
2022/01/11 09:02:14;;;;;;;11.60;7.17;;;;;;;5.45;100.00;99406.50;5070737;28;20286;-71
2022/01/11 09:04:42;;;;;;;6.37;5.87;;;;;;;5.48;100.00;99405.63;5070835;28;20288;-74
2022/01/11 09:07:09;;;;;;;6.90;6.17;;;;;;;5.49;100.00;99402.25;5063317;28;20561;-71
2022/01/11 09:09:36;;;;;;;8.13;6.97;;;;;;;5.60;100.00;99400.41;5069203;28;20243;-72
2022/01/11 09:12:06;;;;;;;8.87;7.00;;;;;;;5.60;100.00;99386.00;5069797;28;20230;-72
2022/01/11 09:14:33;;;;;;;7.27;6.67;;;;;;;5.62;100.00;99403.81;5063603;28;20634;-72
2022/01/11 09:17:02;;;;;;;8.07;6.73;;;;;;;5.64;100.00;99397.84;5067529;28;20215;-72
2022/01/11 09:19:29;;;;;;;9.27;8.47;;;;;;;5.58;100.00;99394.50;5069257;28;20204;-71
2022/01/11 09:21:56;;;;;;;11.97;10.73;;;;;;;5.63;100.00;99395.28;5068196;28;20736;-71
2022/01/11 09:24:29;;;;;;;39.17;25.67;;;;;;;5.71;100.00;99394.38;5057215;28;20299;-71
2022/01/11 09:26:57;;;;;;;30.23;22.60;;;;;;;5.79;100.00;99396.81;5060260;28;20204;-72
2022/01/11 09:29:27;;;;;;;17.00;14.93;;;;;;;5.81;100.00;99390.88;5056974;28;20261;-74
2022/01/11 09:31:56;;;;;;;9.83;8.53;;;;;;;5.84;100.00;99400.16;5070185;28;20199;-73
2022/01/11 09:34:23;;;;;;;7.27;6.73;;;;;;;5.91;100.00;99401.81;5068293;28;21675;-74
2022/01/11 09:36:51;;;;;;;10.20;9.20;;;;;;;5.94;100.00;99403.47;5068661;28;20291;-73
2022/01/11 09:39:18;;;;;;;11.00;9.90;;;;;;;5.82;100.00;99386.59;5066112;28;20199;-73
2022/01/11 09:41:45;;;;;;;11.57;10.47;;;;;;;5.93;100.00;99402.63;5066641;28;20652;-74
2022/01/11 09:44:12;;;;;;;24.80;14.37;;;;;;;5.91;100.00;99406.91;5066686;28;20220;-73
2022/01/11 09:46:40;;;;;;;10.13;9.17;;;;;;;5.83;100.00;99411.19;5067021;28;20195;-72
2022/01/11 09:49:07;;;;;;;7.67;6.93;;;;;;;5.78;100.00;99418.03;5055237;28;20205;-72
2022/01/11 09:51:37;;;;;;;7.13;6.60;;;;;;;5.79;100.00;99417.16;5069240;28;20215;-72
2022/01/11 09:54:05;;;;;;;8.53;7.53;;;;;;;5.77;100.00;99419.75;5070491;28;20216;-73
2022/01/11 09:56:35;;;;;;;12.33;7.50;;;;;;;5.73;100.00;99415.53;5062736;28;20303;-73
2022/01/11 09:59:02;;;;;;;6.40;5.77;;;;;;;5.62;100.00;99416.53;5062257;28;20892;-74
2022/01/11 10:01:29;;;;;;;5.63;5.23;;;;;;;5.53;100.00;99414.88;5060264;28;20678;-73
2022/01/11 10:04:01;;;;;;;7.40;5.40;;;;;;;5.52;100.00;99412.38;5056192;28;20232;-73
2022/01/11 10:06:28;;;;;;;9.93;5.40;;;;;;;5.50;100.00;99414.06;5069029;28;20216;-74
2022/01/11 10:09:09;;;;;;;7.37;6.67;;;;;;;5.34;100.00;99417.63;5069215;28;20232;-72
2022/01/11 10:11:36;;;;;;;11.63;8.37;;;;;;;5.26;100.00;99415.16;5068790;28;20204;-74
2022/01/11 10:14:21;;;;;;;13.67;9.37;;;;;;;5.33;100.00;99421.88;5068651;28;20306;-72
2022/01/11 10:16:49;;;;;;;11.00;8.37;;;;;;;5.37;100.00;99417.59;5067767;28;20206;-73
2022/01/11 10:19:26;;;;;;;7.67;7.00;;;;;;;5.34;100.00;99394.75;5061662;28;20294;-72
2022/01/11 10:21:55;;;;;;;8.07;6.30;;;;;;;5.44;100.00;99414.13;5063592;28;20246;-73
2022/01/11 10:24:32;;;;;;;7.83;6.87;;;;;;;5.50;100.00;99421.69;5066253;28;20684;-72
2022/01/11 10:27:01;;;;;;;16.37;8.83;;;;;;;5.47;100.00;99429.34;5057437;28;20207;-71
2022/01/11 10:29:35;;;;;;;14.33;9.80;;;;;;;5.49;100.00;99427.66;5059777;28;20329;-72
2022/01/11 10:32:12;;;;;;;16.47;9.13;;;;;;;5.60;100.00;99428.38;5059506;28;20206;-72
2022/01/11 10:34:40;;;;;;;17.13;9.57;;;;;;;5.65;100.00;99419.03;5065413;28;20203;-71
2022/01/11 10:37:08;;;;;;;17.73;9.30;;;;;;;5.66;100.00;99420.69;5062596;28;20204;-71
2022/01/11 10:39:38;;;;;;;20.10;10.73;;;;;;;5.61;100.00;99415.66;5063506;28;20708;-72
2022/01/11 10:42:07;;;;;;;25.87;11.40;;;;;;;5.64;100.00;99417.34;5061145;28;20670;-72
2022/01/11 10:44:58;;;;;;;20.03;10.93;;;;;;;5.62;100.00;99424.16;5062875;28;20294;-72
2022/01/11 10:47:28;;;;;;;17.97;9.47;;;;;;;5.57;100.00;99415.72;5059230;28;20210;-71
2022/01/11 10:50:00;;;;;;;18.00;10.07;;;;;;;5.68;100.00;99429.16;5069157;28;20230;-72
2022/01/11 10:52:29;;;;;;;15.03;10.67;;;;;;;5.71;100.00;99429.13;5054188;28;20327;-71
2022/01/11 10:54:56;;;;;;;21.13;12.10;;;;;;;5.73;100.00;99422.31;5057991;28;20216;-74
2022/01/11 10:57:26;;;;;;;13.87;11.67;;;;;;;5.76;100.00;99427.38;5056304;28;20204;-72
2022/01/11 11:00:21;;;;;;;11.53;9.97;;;;;;;5.72;100.00;99426.56;5057184;28;20607;-73
2022/01/11 11:02:52;;;;;;;19.27;12.47;;;;;;;5.68;100.00;99429.16;5049114;28;20199;-74
2022/01/11 11:05:24;;;;;;;10.97;9.70;;;;;;;5.61;100.00;99432.63;5056236;28;20244;-73
2022/01/11 11:07:58;;;;;;;20.90;12.43;;;;;;;5.58;100.00;99437.75;5057927;28;20228;-72
2022/01/11 11:10:44;;;;;;;9.37;7.23;;;;;;;5.46;100.00;99433.59;5059542;28;20638;-74
2022/01/11 11:13:17;;;;;;;9.43;6.20;;;;;;;5.29;100.00;99425.31;5066046;28;20223;-75
2022/01/11 11:15:44;;;;;;;6.83;6.13;;;;;;;5.23;100.00;99426.16;5059548;28;20208;-76
2022/01/11 11:18:24;;;;;;;6.93;6.10;;;;;;;5.23;100.00;99431.25;5065937;28;20215;-74
2022/01/11 11:20:52;;;;;;;5.90;5.47;;;;;;;4.92;100.00;99399.31;5064806;28;20192;-73
2022/01/11 11:23:19;;;;;;;6.63;5.83;;;;;;;5.05;100.00;99426.31;5060624;28;20257;-74
2022/01/11 11:25:46;;;;;;;6.47;5.93;;;;;;;4.96;100.00;99431.47;5057763;28;20347;-76
2022/01/11 11:28:15;;;;;;;8.57;7.82;;;;;;;5.10;100.00;99441.56;5065560;28;20439;-75
2022/01/11 11:30:42;;;;;;;7.00;6.33;;;;;;;5.10;100.00;99439.84;5060771;28;20217;-75
2022/01/11 11:33:11;;;;;;;6.33;5.93;;;;;;;5.10;100.00;99442.41;5065549;28;20604;-75
2022/01/11 11:35:39;;;;;;;6.33;5.73;;;;;;;5.03;100.00;99438.22;5057715;28;20208;-75
2022/01/11 11:38:10;;;;;;;6.03;5.53;;;;;;;5.01;100.00;99408.59;5071293;28;20735;-75